sensor_id;sensor_type;location;lat;lon;timestamp;temperature;humidity
4699;DHT22;33708;49.466;11.176;2022-11-02T00:01:51;9.70;99.90
4699;DHT22;33708;49.466;11.176;2022-11-02T00:04:17;9.80;99.90
4699;DHT22;33708;49.466;11.176;2022-11-02T00:06:43;9.90;99.90
4699;DHT22;33708;49.466;11.176;2022-11-02T00:09:09;9.80;99.90
4699;DHT22;33708;49.466;11.176;2022-11-02T00:11:35;9.90;99.90
4699;DHT22;33708;49.466;11.176;2022-11-02T00:14:02;10.10;99.90
4699;DHT22;33708;49.466;11.176;2022-11-02T00:16:27;10.10;99.90
4699;DHT22;33708;49.466;11.176;2022-11-02T00:18:56;10.40;99.90
4699;DHT22;33708;49.466;11.176;2022-11-02T00:21:24;10.40;99.90
4699;DHT22;33708;49.466;11.176;2022-11-02T00:23:50;10.30;99.90
4699;DHT22;33708;49.466;11.176;2022-11-02T00:26:17;10.30;99.90
4699;DHT22;33708;49.466;11.176;2022-11-02T00:28:43;10.30;99.90
4699;DHT22;33708;49.466;11.176;2022-11-02T00:31:09;10.30;99.90
4699;DHT22;33708;49.466;11.176;2022-11-02T00:33:35;10.40;99.90
4699;DHT22;33708;49.466;11.176;2022-11-02T00:36:01;10.50;99.90
4699;DHT22;33708;49.466;11.176;2022-11-02T00:38:26;10.60;99.90
4699;DHT22;33708;49.466;11.176;2022-11-02T00:40:52;10.60;99.90
4699;DHT22;33708;49.466;11.176;2022-11-02T00:43:18;10.50;99.90
4699;DHT22;33708;49.466;11.176;2022-11-02T00:45:43;10.50;99.90
4699;DHT22;33708;49.466;11.176;2022-11-02T00:48:09;10.30;99.90
4699;DHT22;33708;49.466;11.176;2022-11-02T00:50:34;10.40;99.90
4699;DHT22;33708;49.466;11.176;2022-11-02T00:53:00;10.40;99.90
4699;DHT22;33708;49.466;11.176;2022-11-02T00:55:26;10.40;99.90
4699;DHT22;33708;49.466;11.176;2022-11-02T00:57:51;10.60;99.90
4699;DHT22;33708;49.466;11.176;2022-11-02T01:00:18;10.10;99.90
4699;DHT22;33708;49.466;11.176;2022-11-02T01:02:44;10.20;99.90
4699;DHT22;33708;49.466;11.176;2022-11-02T01:05:10;10.40;99.90
4699;DHT22;33708;49.466;11.176;2022-11-02T01:07:36;10.20;99.90
4699;DHT22;33708;49.466;11.176;2022-11-02T01:10:03;10.30;99.90
4699;DHT22;33708;49.466;11.176;2022-11-02T01:12:29;10.30;99.90
4699;DHT22;33708;49.466;11.176;2022-11-02T01:14:55;10.30;99.90
4699;DHT22;33708;49.466;11.176;2022-11-02T01:17:20;10.20;99.90
4699;DHT22;33708;49.466;11.176;2022-11-02T01:19:46;10.10;99.90
4699;DHT22;33708;49.466;11.176;2022-11-02T01:22:12;9.90;99.90
4699;DHT22;33708;49.466;11.176;2022-11-02T01:24:37;9.80;99.90
4699;DHT22;33708;49.466;11.176;2022-11-02T01:27:03;9.90;99.90
4699;DHT22;33708;49.466;11.176;2022-11-02T01:29:29;9.80;99.90
4699;DHT22;33708;49.466;11.176;2022-11-02T01:31:54;9.70;99.90
4699;DHT22;33708;49.466;11.176;2022-11-02T01:34:20;9.60;99.90
4699;DHT22;33708;49.466;11.176;2022-11-02T01:36:46;9.60;99.90
4699;DHT22;33708;49.466;11.176;2022-11-02T01:39:13;9.50;99.90
4699;DHT22;33708;49.466;11.176;2022-11-02T01:41:39;9.40;99.90
4699;DHT22;33708;49.466;11.176;2022-11-02T01:44:30;9.20;99.90
4699;DHT22;33708;49.466;11.176;2022-11-02T01:49:39;9.40;99.90
4699;DHT22;33708;49.466;11.176;2022-11-02T01:52:16;9.40;99.90
4699;DHT22;33708;49.466;11.176;2022-11-02T01:54:58;9.40;99.90
4699;DHT22;33708;49.466;11.176;2022-11-02T01:57:27;9.40;99.90
4699;DHT22;33708;49.466;11.176;2022-11-02T02:00:07;9.40;99.90
4699;DHT22;33708;49.466;11.176;2022-11-02T02:02:36;9.20;99.90
4699;DHT22;33708;49.466;11.176;2022-11-02T02:05:05;9.50;99.90
4699;DHT22;33708;49.466;11.176;2022-11-02T02:07:34;9.10;99.90
4699;DHT22;33708;49.466;11.176;2022-11-02T02:10:01;8.90;99.90
4699;DHT22;33708;49.466;11.176;2022-11-02T02:12:27;8.80;99.90
4699;DHT22;33708;49.466;11.176;2022-11-02T02:14:53;8.70;99.90
4699;DHT22;33708;49.466;11.176;2022-11-02T02:17:56;8.60;99.90
4699;DHT22;33708;49.466;11.176;2022-11-02T02:31:37;8.30;99.90
4699;DHT22;33708;49.466;11.176;2022-11-02T02:34:30;8.30;99.90
4699;DHT22;33708;49.466;11.176;2022-11-02T02:37:06;8.60;99.90
4699;DHT22;33708;49.466;11.176;2022-11-02T02:42:20;8.50;99.90
4699;DHT22;33708;49.466;11.176;2022-11-02T02:47:32;8.80;99.90
4699;DHT22;33708;49.466;11.176;2022-11-02T02:50:19;8.90;99.90
4699;DHT22;33708;49.466;11.176;2022-11-02T02:52:47;8.90;99.90
4699;DHT22;33708;49.466;11.176;2022-11-02T02:55:20;8.90;99.90
4699;DHT22;33708;49.466;11.176;2022-11-02T02:57:48;8.60;99.90
4699;DHT22;33708;49.466;11.176;2022-11-02T03:00:15;8.50;99.90
4699;DHT22;33708;49.466;11.176;2022-11-02T03:02:43;8.40;99.90
4699;DHT22;33708;49.466;11.176;2022-11-02T03:05:30;8.10;99.90
4699;DHT22;33708;49.466;11.176;2022-11-02T03:08:01;8.00;99.90
4699;DHT22;33708;49.466;11.176;2022-11-02T03:10:36;7.60;99.90
4699;DHT22;33708;49.466;11.176;2022-11-02T03:15:58;7.70;99.90
4699;DHT22;33708;49.466;11.176;2022-11-02T03:18:40;7.60;99.90
4699;DHT22;33708;49.466;11.176;2022-11-02T03:21:32;7.50;99.90
4699;DHT22;33708;49.466;11.176;2022-11-02T03:27:34;7.50;99.90
4699;DHT22;33708;49.466;11.176;2022-11-02T03:30:15;7.40;99.90
4699;DHT22;33708;49.466;11.176;2022-11-02T03:35:47;7.10;99.90
4699;DHT22;33708;49.466;11.176;2022-11-02T03:38:16;7.10;99.90
4699;DHT22;33708;49.466;11.176;2022-11-02T03:40:46;7.10;99.90
4699;DHT22;33708;49.466;11.176;2022-11-02T03:43:14;7.10;99.90
4699;DHT22;33708;49.466;11.176;2022-11-02T03:45:53;7.00;99.90
4699;DHT22;33708;49.466;11.176;2022-11-02T03:48:21;7.00;99.90
4699;DHT22;33708;49.466;11.176;2022-11-02T03:50:49;7.00;99.90
4699;DHT22;33708;49.466;11.176;2022-11-02T03:53:36;6.90;99.90
4699;DHT22;33708;49.466;11.176;2022-11-02T03:56:11;6.80;99.90
4699;DHT22;33708;49.466;11.176;2022-11-02T03:58:39;6.80;99.90
4699;DHT22;33708;49.466;11.176;2022-11-02T04:01:06;6.90;99.90
4699;DHT22;33708;49.466;11.176;2022-11-02T04:03:39;6.90;99.90
4699;DHT22;33708;49.466;11.176;2022-11-02T04:06:07;6.90;99.90
4699;DHT22;33708;49.466;11.176;2022-11-02T04:08:38;6.80;99.90
4699;DHT22;33708;49.466;11.176;2022-11-02T04:11:05;6.80;99.90
4699;DHT22;33708;49.466;11.176;2022-11-02T04:13:50;6.80;99.90
4699;DHT22;33708;49.466;11.176;2022-11-02T04:16:34;6.80;99.90
4699;DHT22;33708;49.466;11.176;2022-11-02T04:19:00;6.80;99.90
4699;DHT22;33708;49.466;11.176;2022-11-02T04:21:44;6.90;99.90
4699;DHT22;33708;49.466;11.176;2022-11-02T04:24:30;6.70;99.90
4699;DHT22;33708;49.466;11.176;2022-11-02T04:27:15;6.60;99.90
4699;DHT22;33708;49.466;11.176;2022-11-02T04:29:40;6.60;99.90
4699;DHT22;33708;49.466;11.176;2022-11-02T04:32:06;6.50;99.90
4699;DHT22;33708;49.466;11.176;2022-11-02T04:34:32;6.40;99.90
4699;DHT22;33708;49.466;11.176;2022-11-02T04:36:57;6.50;99.90
4699;DHT22;33708;49.466;11.176;2022-11-02T04:39:23;6.50;99.90
4699;DHT22;33708;49.466;11.176;2022-11-02T04:41:49;6.40;99.90
4699;DHT22;33708;49.466;11.176;2022-11-02T04:44:15;6.40;99.90
4699;DHT22;33708;49.466;11.176;2022-11-02T04:46:42;6.40;99.90
4699;DHT22;33708;49.466;11.176;2022-11-02T04:49:09;6.40;99.90
4699;DHT22;33708;49.466;11.176;2022-11-02T04:51:35;6.30;99.90
4699;DHT22;33708;49.466;11.176;2022-11-02T04:54:02;6.30;99.90
4699;DHT22;33708;49.466;11.176;2022-11-02T04:56:28;6.20;99.90
4699;DHT22;33708;49.466;11.176;2022-11-02T04:58:58;6.20;99.90
4699;DHT22;33708;49.466;11.176;2022-11-02T05:01:26;6.20;99.90
4699;DHT22;33708;49.466;11.176;2022-11-02T05:03:54;6.40;99.90
4699;DHT22;33708;49.466;11.176;2022-11-02T05:06:22;6.20;99.90
4699;DHT22;33708;49.466;11.176;2022-11-02T05:08:48;6.20;99.90
4699;DHT22;33708;49.466;11.176;2022-11-02T05:11:14;6.20;99.90
4699;DHT22;33708;49.466;11.176;2022-11-02T05:13:40;6.30;99.90
4699;DHT22;33708;49.466;11.176;2022-11-02T05:16:11;6.40;99.90
4699;DHT22;33708;49.466;11.176;2022-11-02T05:18:37;6.40;99.90
4699;DHT22;33708;49.466;11.176;2022-11-02T05:21:03;6.50;99.90
4699;DHT22;33708;49.466;11.176;2022-11-02T05:23:29;6.50;99.90
4699;DHT22;33708;49.466;11.176;2022-11-02T05:25:56;6.40;99.90
4699;DHT22;33708;49.466;11.176;2022-11-02T05:28:24;6.40;99.90
4699;DHT22;33708;49.466;11.176;2022-11-02T05:30:50;6.40;99.90
4699;DHT22;33708;49.466;11.176;2022-11-02T05:33:16;6.40;99.90
4699;DHT22;33708;49.466;11.176;2022-11-02T05:35:42;6.30;99.90
4699;DHT22;33708;49.466;11.176;2022-11-02T05:38:08;6.30;99.90
4699;DHT22;33708;49.466;11.176;2022-11-02T05:40:33;6.40;99.90
4699;DHT22;33708;49.466;11.176;2022-11-02T05:45:29;6.50;99.90
4699;DHT22;33708;49.466;11.176;2022-11-02T05:47:55;6.40;99.90
4699;DHT22;33708;49.466;11.176;2022-11-02T05:50:21;6.50;99.90
4699;DHT22;33708;49.466;11.176;2022-11-02T05:52:47;6.50;99.90
4699;DHT22;33708;49.466;11.176;2022-11-02T05:55:13;6.40;99.90
4699;DHT22;33708;49.466;11.176;2022-11-02T05:57:39;6.30;99.90
4699;DHT22;33708;49.466;11.176;2022-11-02T06:00:06;6.30;99.90
4699;DHT22;33708;49.466;11.176;2022-11-02T06:02:35;6.20;99.90
4699;DHT22;33708;49.466;11.176;2022-11-02T06:05:00;6.20;99.90
4699;DHT22;33708;49.466;11.176;2022-11-02T06:07:26;6.20;99.90
4699;DHT22;33708;49.466;11.176;2022-11-02T06:09:52;6.20;99.90
4699;DHT22;33708;49.466;11.176;2022-11-02T06:12:17;6.20;99.90
4699;DHT22;33708;49.466;11.176;2022-11-02T06:14:43;6.20;99.90
4699;DHT22;33708;49.466;11.176;2022-11-02T06:17:08;6.20;99.90
4699;DHT22;33708;49.466;11.176;2022-11-02T06:19:34;6.30;99.90
4699;DHT22;33708;49.466;11.176;2022-11-02T06:22:00;6.30;99.90
4699;DHT22;33708;49.466;11.176;2022-11-02T06:24:25;6.30;99.90
4699;DHT22;33708;49.466;11.176;2022-11-02T06:26:51;6.30;99.90
4699;DHT22;33708;49.466;11.176;2022-11-02T06:29:17;6.30;99.90
4699;DHT22;33708;49.466;11.176;2022-11-02T06:31:42;6.40;99.90
4699;DHT22;33708;49.466;11.176;2022-11-02T06:34:08;6.40;99.90
4699;DHT22;33708;49.466;11.176;2022-11-02T06:36:34;6.50;99.90
4699;DHT22;33708;49.466;11.176;2022-11-02T06:38:59;6.70;99.90
4699;DHT22;33708;49.466;11.176;2022-11-02T06:41:25;6.70;99.90
4699;DHT22;33708;49.466;11.176;2022-11-02T06:43:51;6.80;99.90
4699;DHT22;33708;49.466;11.176;2022-11-02T06:46:16;6.80;99.90
4699;DHT22;33708;49.466;11.176;2022-11-02T06:48:45;6.90;99.90
4699;DHT22;33708;49.466;11.176;2022-11-02T06:51:11;7.00;99.90
4699;DHT22;33708;49.466;11.176;2022-11-02T06:53:36;7.40;99.90
4699;DHT22;33708;49.466;11.176;2022-11-02T06:56:02;7.20;99.90
4699;DHT22;33708;49.466;11.176;2022-11-02T06:58:28;7.30;99.90
4699;DHT22;33708;49.466;11.176;2022-11-02T07:00:59;7.50;99.90
4699;DHT22;33708;49.466;11.176;2022-11-02T07:03:26;8.70;99.90
4699;DHT22;33708;49.466;11.176;2022-11-02T07:05:51;10.90;99.90
4699;DHT22;33708;49.466;11.176;2022-11-02T07:08:18;11.40;99.90
4699;DHT22;33708;49.466;11.176;2022-11-02T07:10:44;12.30;99.90
4699;DHT22;33708;49.466;11.176;2022-11-02T07:13:10;13.30;99.90
4699;DHT22;33708;49.466;11.176;2022-11-02T07:15:35;14.20;99.90
4699;DHT22;33708;49.466;11.176;2022-11-02T07:18:01;14.60;99.90
4699;DHT22;33708;49.466;11.176;2022-11-02T07:20:27;14.90;99.90
4699;DHT22;33708;49.466;11.176;2022-11-02T07:22:58;15.70;99.50
4699;DHT22;33708;49.466;11.176;2022-11-02T07:25:26;15.90;93.40
4699;DHT22;33708;49.466;11.176;2022-11-02T07:27:53;16.90;91.30
4699;DHT22;33708;49.466;11.176;2022-11-02T07:30:20;16.80;84.00
4699;DHT22;33708;49.466;11.176;2022-11-02T07:32:46;16.30;75.30
4699;DHT22;33708;49.466;11.176;2022-11-02T07:35:13;15.70;71.40
4699;DHT22;33708;49.466;11.176;2022-11-02T07:37:39;15.10;71.70
4699;DHT22;33708;49.466;11.176;2022-11-02T07:40:07;15.20;75.90
4699;DHT22;33708;49.466;11.176;2022-11-02T07:42:33;15.50;73.80
4699;DHT22;33708;49.466;11.176;2022-11-02T07:44:59;15.10;71.50
4699;DHT22;33708;49.466;11.176;2022-11-02T07:47:25;14.40;71.40
4699;DHT22;33708;49.466;11.176;2022-11-02T07:49:51;14.30;75.60
4699;DHT22;33708;49.466;11.176;2022-11-02T07:52:17;14.10;78.20
4699;DHT22;33708;49.466;11.176;2022-11-02T07:54:43;13.60;82.20
4699;DHT22;33708;49.466;11.176;2022-11-02T07:57:09;13.50;85.70
4699;DHT22;33708;49.466;11.176;2022-11-02T07:59:34;13.20;86.80
4699;DHT22;33708;49.466;11.176;2022-11-02T08:02:01;12.90;89.80
4699;DHT22;33708;49.466;11.176;2022-11-02T08:04:27;12.50;92.40
4699;DHT22;33708;49.466;11.176;2022-11-02T08:06:52;12.90;97.90
4699;DHT22;33708;49.466;11.176;2022-11-02T08:09:18;15.30;98.00
4699;DHT22;33708;49.466;11.176;2022-11-02T08:11:44;15.50;88.70
4699;DHT22;33708;49.466;11.176;2022-11-02T08:14:10;15.40;89.80
4699;DHT22;33708;49.466;11.176;2022-11-02T08:16:35;15.60;89.20
4699;DHT22;33708;49.466;11.176;2022-11-02T08:19:01;15.40;83.90
4699;DHT22;33708;49.466;11.176;2022-11-02T08:21:27;14.80;81.00
4699;DHT22;33708;49.466;11.176;2022-11-02T08:23:52;14.80;83.50
4699;DHT22;33708;49.466;11.176;2022-11-02T08:26:19;14.90;85.00
4699;DHT22;33708;49.466;11.176;2022-11-02T08:28:45;15.10;85.70
4699;DHT22;33708;49.466;11.176;2022-11-02T08:31:13;15.00;94.00
4699;DHT22;33708;49.466;11.176;2022-11-02T08:33:41;14.80;79.80
4699;DHT22;33708;49.466;11.176;2022-11-02T08:36:07;14.50;79.40
4699;DHT22;33708;49.466;11.176;2022-11-02T08:38:32;15.30;90.70
4699;DHT22;33708;49.466;11.176;2022-11-02T08:40:58;16.10;81.30
4699;DHT22;33708;49.466;11.176;2022-11-02T08:43:24;16.50;77.00
4699;DHT22;33708;49.466;11.176;2022-11-02T08:45:50;16.20;70.50
4699;DHT22;33708;49.466;11.176;2022-11-02T08:48:15;15.80;67.20
4699;DHT22;33708;49.466;11.176;2022-11-02T08:50:41;15.60;66.60
4699;DHT22;33708;49.466;11.176;2022-11-02T08:53:07;15.80;68.50
4699;DHT22;33708;49.466;11.176;2022-11-02T08:55:33;15.50;67.40
4699;DHT22;33708;49.466;11.176;2022-11-02T08:57:59;15.60;68.20
4699;DHT22;33708;49.466;11.176;2022-11-02T09:00:28;15.60;67.70
4699;DHT22;33708;49.466;11.176;2022-11-02T09:03:05;15.00;64.80
4699;DHT22;33708;49.466;11.176;2022-11-02T09:05:36;15.00;66.80
4699;DHT22;33708;49.466;11.176;2022-11-02T09:08:06;15.20;69.10
4699;DHT22;33708;49.466;11.176;2022-11-02T09:10:34;15.00;69.60
4699;DHT22;33708;49.466;11.176;2022-11-02T09:13:02;14.80;70.10
4699;DHT22;33708;49.466;11.176;2022-11-02T09:15:29;14.50;72.30
4699;DHT22;33708;49.466;11.176;2022-11-02T09:17:55;14.70;74.30
4699;DHT22;33708;49.466;11.176;2022-11-02T09:20:21;14.30;75.10
4699;DHT22;33708;49.466;11.176;2022-11-02T09:22:47;14.20;74.70
4699;DHT22;33708;49.466;11.176;2022-11-02T09:27:52;13.70;78.60
4699;DHT22;33708;49.466;11.176;2022-11-02T09:30:26;13.50;79.80
4699;DHT22;33708;49.466;11.176;2022-11-02T09:32:57;13.70;82.60
4699;DHT22;33708;49.466;11.176;2022-11-02T09:35:24;14.00;84.90
4699;DHT22;33708;49.466;11.176;2022-11-02T09:37:50;14.10;84.80
4699;DHT22;33708;49.466;11.176;2022-11-02T09:40:21;14.40;85.60
4699;DHT22;33708;49.466;11.176;2022-11-02T09:45:22;14.50;80.40
4699;DHT22;33708;49.466;11.176;2022-11-02T09:48:00;14.70;78.90
4699;DHT22;33708;49.466;11.176;2022-11-02T09:53:43;14.70;76.90
4699;DHT22;33708;49.466;11.176;2022-11-02T09:56:13;15.00;78.30
4699;DHT22;33708;49.466;11.176;2022-11-02T09:58:42;15.10;76.00
4699;DHT22;33708;49.466;11.176;2022-11-02T10:01:22;15.10;73.70
4699;DHT22;33708;49.466;11.176;2022-11-02T10:04:09;15.40;74.30
4699;DHT22;33708;49.466;11.176;2022-11-02T10:06:39;15.80;73.20
4699;DHT22;33708;49.466;11.176;2022-11-02T10:14:29;16.40;63.90
4699;DHT22;33708;49.466;11.176;2022-11-02T10:17:10;16.40;60.60
4699;DHT22;33708;49.466;11.176;2022-11-02T10:19:39;16.30;59.50
4699;DHT22;33708;49.466;11.176;2022-11-02T10:22:10;16.30;59.00
4699;DHT22;33708;49.466;11.176;2022-11-02T10:24:45;16.00;55.00
4699;DHT22;33708;49.466;11.176;2022-11-02T10:27:28;16.00;68.40
4699;DHT22;33708;49.466;11.176;2022-11-02T10:32:25;16.30;53.40
4699;DHT22;33708;49.466;11.176;2022-11-02T10:34:51;16.30;51.60
4699;DHT22;33708;49.466;11.176;2022-11-02T10:37:42;16.50;53.20
4699;DHT22;33708;49.466;11.176;2022-11-02T10:45:56;16.40;48.00
4699;DHT22;33708;49.466;11.176;2022-11-02T10:53:34;16.20;46.90
4699;DHT22;33708;49.466;11.176;2022-11-02T10:56:19;16.20;46.70
4699;DHT22;33708;49.466;11.176;2022-11-02T11:01:15;17.00;48.30
4699;DHT22;33708;49.466;11.176;2022-11-02T11:04:02;16.90;44.60
4699;DHT22;33708;49.466;11.176;2022-11-02T11:06:39;16.60;41.80
4699;DHT22;33708;49.466;11.176;2022-11-02T11:11:40;16.20;37.70
4699;DHT22;33708;49.466;11.176;2022-11-02T11:16:39;16.10;35.90
4699;DHT22;33708;49.466;11.176;2022-11-02T11:21:49;16.20;37.10
4699;DHT22;33708;49.466;11.176;2022-11-02T11:24:27;16.20;38.00
4699;DHT22;33708;49.466;11.176;2022-11-02T11:29:32;16.20;37.10
4699;DHT22;33708;49.466;11.176;2022-11-02T11:32:00;16.60;38.30
4699;DHT22;33708;49.466;11.176;2022-11-02T11:34:28;16.70;34.30
4699;DHT22;33708;49.466;11.176;2022-11-02T11:37:15;16.40;30.40
4699;DHT22;33708;49.466;11.176;2022-11-02T11:39:43;16.60;30.50
4699;DHT22;33708;49.466;11.176;2022-11-02T11:42:17;16.40;29.70
4699;DHT22;33708;49.466;11.176;2022-11-02T11:44:49;16.20;26.80
4699;DHT22;33708;49.466;11.176;2022-11-02T11:47:24;16.30;27.80
4699;DHT22;33708;49.466;11.176;2022-11-02T11:49:51;16.50;38.50
4699;DHT22;33708;49.466;11.176;2022-11-02T11:52:21;16.80;25.60
4699;DHT22;33708;49.466;11.176;2022-11-02T11:54:56;16.40;22.30
4699;DHT22;33708;49.466;11.176;2022-11-02T11:57:33;17.00;23.40
4699;DHT22;33708;49.466;11.176;2022-11-02T12:00:16;17.00;21.80
4699;DHT22;33708;49.466;11.176;2022-11-02T12:03:02;16.80;20.00
4699;DHT22;33708;49.466;11.176;2022-11-02T12:05:30;16.70;17.80
4699;DHT22;33708;49.466;11.176;2022-11-02T12:22:22;16.40;12.20
4699;DHT22;33708;49.466;11.176;2022-11-02T12:27:45;15.80;12.70
4699;DHT22;33708;49.466;11.176;2022-11-02T12:30:19;15.50;12.30
4699;DHT22;33708;49.466;11.176;2022-11-02T12:33:14;15.30;15.20
4699;DHT22;33708;49.466;11.176;2022-11-02T12:38:59;14.90;15.60
4699;DHT22;33708;49.466;11.176;2022-11-02T12:42:10;14.70;16.70
4699;DHT22;33708;49.466;11.176;2022-11-02T12:54:55;14.20;22.00
4699;DHT22;33708;49.466;11.176;2022-11-02T12:57:23;14.30;20.40
4699;DHT22;33708;49.466;11.176;2022-11-02T12:59:52;14.40;19.20
4699;DHT22;33708;49.466;11.176;2022-11-02T13:02:53;14.50;20.00
4699;DHT22;33708;49.466;11.176;2022-11-02T13:05:26;14.60;19.90
4699;DHT22;33708;49.466;11.176;2022-11-02T13:08:10;14.80;18.50
4699;DHT22;33708;49.466;11.176;2022-11-02T13:10:57;14.90;18.20
4699;DHT22;33708;49.466;11.176;2022-11-02T13:13:47;14.80;17.40
4699;DHT22;33708;49.466;11.176;2022-11-02T13:16:16;14.90;17.00
4699;DHT22;33708;49.466;11.176;2022-11-02T13:18:46;15.20;19.30
4699;DHT22;33708;49.466;11.176;2022-11-02T13:21:15;15.30;18.20
4699;DHT22;33708;49.466;11.176;2022-11-02T13:23:52;15.20;15.90
4699;DHT22;33708;49.466;11.176;2022-11-02T13:26:32;15.10;16.00
4699;DHT22;33708;49.466;11.176;2022-11-02T13:29:29;15.20;15.20
4699;DHT22;33708;49.466;11.176;2022-11-02T13:31:59;15.10;14.30
4699;DHT22;33708;49.466;11.176;2022-11-02T13:34:39;15.20;14.00
4699;DHT22;33708;49.466;11.176;2022-11-02T13:37:13;15.00;13.10
4699;DHT22;33708;49.466;11.176;2022-11-02T13:39:45;15.00;13.90
4699;DHT22;33708;49.466;11.176;2022-11-02T13:45:11;14.80;12.50
4699;DHT22;33708;49.466;11.176;2022-11-02T13:50:48;14.70;13.00
4699;DHT22;33708;49.466;11.176;2022-11-02T13:53:26;14.90;14.00
4699;DHT22;33708;49.466;11.176;2022-11-02T13:55:56;14.90;3.30
4699;DHT22;33708;49.466;11.176;2022-11-02T13:58:26;14.80;12.00
4699;DHT22;33708;49.466;11.176;2022-11-02T14:00:57;14.80;11.10
4699;DHT22;33708;49.466;11.176;2022-11-02T14:03:30;14.80;10.90
4699;DHT22;33708;49.466;11.176;2022-11-02T14:06:00;14.90;12.30
4699;DHT22;33708;49.466;11.176;2022-11-02T14:08:49;14.90;11.00
4699;DHT22;33708;49.466;11.176;2022-11-02T14:21:41;14.30;2.90
4699;DHT22;33708;49.466;11.176;2022-11-02T14:27:42;14.10;4.20
4699;DHT22;33708;49.466;11.176;2022-11-02T14:29:53;14.10;3.80
4699;DHT22;33708;49.466;11.176;2022-11-02T14:40:29;14.10;3.80
4699;DHT22;33708;49.466;11.176;2022-11-02T14:43:05;14.10;2.20
4699;DHT22;33708;49.466;11.176;2022-11-02T14:48:31;14.00;1.80
4699;DHT22;33708;49.466;11.176;2022-11-02T14:51:20;13.90;1.90
4699;DHT22;33708;49.466;11.176;2022-11-02T14:53:48;13.80;1.20
4699;DHT22;33708;49.466;11.176;2022-11-02T14:56:18;13.90;1.00
4699;DHT22;33708;49.466;11.176;2022-11-02T14:58:53;13.70;1.00
4699;DHT22;33708;49.466;11.176;2022-11-02T15:01:20;13.70;1.00
4699;DHT22;33708;49.466;11.176;2022-11-02T15:03:47;13.60;1.00
4699;DHT22;33708;49.466;11.176;2022-11-02T15:06:16;13.50;1.00
4699;DHT22;33708;49.466;11.176;2022-11-02T15:08:51;13.50;1.00
4699;DHT22;33708;49.466;11.176;2022-11-02T15:19:44;12.80;1.00
4699;DHT22;33708;49.466;11.176;2022-11-02T15:27:35;12.40;1.00
4699;DHT22;33708;49.466;11.176;2022-11-02T15:30:03;12.20;1.00
4699;DHT22;33708;49.466;11.176;2022-11-02T15:32:33;12.10;1.00
4699;DHT22;33708;49.466;11.176;2022-11-02T15:35:02;11.90;1.00
4699;DHT22;33708;49.466;11.176;2022-11-02T15:37:32;11.70;1.00
4699;DHT22;33708;49.466;11.176;2022-11-02T15:39:59;11.70;1.00
4699;DHT22;33708;49.466;11.176;2022-11-02T15:42:47;11.70;1.00
4699;DHT22;33708;49.466;11.176;2022-11-02T15:48:23;11.40;1.00
4699;DHT22;33708;49.466;11.176;2022-11-02T16:01:22;10.40;20.00
4699;DHT22;33708;49.466;11.176;2022-11-02T16:03:51;10.40;24.10
4699;DHT22;33708;49.466;11.176;2022-11-02T16:06:28;10.20;23.40
4699;DHT22;33708;49.466;11.176;2022-11-02T16:09:00;10.00;26.40
4699;DHT22;33708;49.466;11.176;2022-11-02T16:11:26;9.90;29.90
4699;DHT22;33708;49.466;11.176;2022-11-02T16:13:52;9.80;32.20
4699;DHT22;33708;49.466;11.176;2022-11-02T16:16:19;9.70;34.60
4699;DHT22;33708;49.466;11.176;2022-11-02T16:18:49;9.50;38.50
4699;DHT22;33708;49.466;11.176;2022-11-02T16:21:22;9.50;42.10
4699;DHT22;33708;49.466;11.176;2022-11-02T16:23:51;9.30;46.30
4699;DHT22;33708;49.466;11.176;2022-11-02T16:26:24;9.10;46.10
4699;DHT22;33708;49.466;11.176;2022-11-02T16:28:53;9.00;48.50
4699;DHT22;33708;49.466;11.176;2022-11-02T16:33:51;8.90;51.70
4699;DHT22;33708;49.466;11.176;2022-11-02T16:36:22;8.90;54.60
4699;DHT22;33708;49.466;11.176;2022-11-02T16:39:00;8.80;67.00
4699;DHT22;33708;49.466;11.176;2022-11-02T16:41:29;8.80;74.60
4699;DHT22;33708;49.466;11.176;2022-11-02T16:43:56;8.90;83.00
4699;DHT22;33708;49.466;11.176;2022-11-02T16:46:31;8.70;75.50
4699;DHT22;33708;49.466;11.176;2022-11-02T16:49:14;8.60;73.70
4699;DHT22;33708;49.466;11.176;2022-11-02T16:51:49;8.40;72.80
4699;DHT22;33708;49.466;11.176;2022-11-02T16:54:23;8.40;77.40
4699;DHT22;33708;49.466;11.176;2022-11-02T16:56:50;8.40;85.50
4699;DHT22;33708;49.466;11.176;2022-11-02T16:59:18;8.40;92.60
4699;DHT22;33708;49.466;11.176;2022-11-02T17:01:45;8.40;90.20
4699;DHT22;33708;49.466;11.176;2022-11-02T17:04:21;8.30;91.10
4699;DHT22;33708;49.466;11.176;2022-11-02T17:06:49;8.10;86.90
4699;DHT22;33708;49.466;11.176;2022-11-02T17:09:25;8.00;86.30
4699;DHT22;33708;49.466;11.176;2022-11-02T17:11:54;7.90;89.60
4699;DHT22;33708;49.466;11.176;2022-11-02T17:14:21;7.80;88.20
4699;DHT22;33708;49.466;11.176;2022-11-02T17:17:07;7.70;88.50
4699;DHT22;33708;49.466;11.176;2022-11-02T17:22:11;7.50;88.70
4699;DHT22;33708;49.466;11.176;2022-11-02T17:24:38;7.40;87.40
4699;DHT22;33708;49.466;11.176;2022-11-02T17:27:23;7.30;88.50
4699;DHT22;33708;49.466;11.176;2022-11-02T17:29:51;7.20;88.20
4699;DHT22;33708;49.466;11.176;2022-11-02T17:32:17;7.20;89.80
4699;DHT22;33708;49.466;11.176;2022-11-02T17:34:57;7.20;91.60
4699;DHT22;33708;49.466;11.176;2022-11-02T17:39:50;7.30;93.00
4699;DHT22;33708;49.466;11.176;2022-11-02T17:42:16;7.40;93.80
4699;DHT22;33708;49.466;11.176;2022-11-02T17:45:22;7.30;94.00
4699;DHT22;33708;49.466;11.176;2022-11-02T17:47:47;7.20;93.60
4699;DHT22;33708;49.466;11.176;2022-11-02T17:50:13;7.10;92.90
4699;DHT22;33708;49.466;11.176;2022-11-02T17:52:39;7.10;93.40
4699;DHT22;33708;49.466;11.176;2022-11-02T17:55:06;6.90;93.40
4699;DHT22;33708;49.466;11.176;2022-11-02T17:57:33;6.80;93.70
4699;DHT22;33708;49.466;11.176;2022-11-02T17:59:59;6.90;94.20
4699;DHT22;33708;49.466;11.176;2022-11-02T18:02:25;6.80;95.50
4699;DHT22;33708;49.466;11.176;2022-11-02T18:04:50;6.60;94.00
4699;DHT22;33708;49.466;11.176;2022-11-02T18:07:16;6.50;94.90
4699;DHT22;33708;49.466;11.176;2022-11-02T18:09:42;6.50;99.90
4699;DHT22;33708;49.466;11.176;2022-11-02T18:12:14;6.50;95.70
4699;DHT22;33708;49.466;11.176;2022-11-02T18:14:40;6.50;96.10
4699;DHT22;33708;49.466;11.176;2022-11-02T18:17:06;6.50;97.50
4699;DHT22;33708;49.466;11.176;2022-11-02T18:19:32;6.60;99.00
4699;DHT22;33708;49.466;11.176;2022-11-02T18:21:59;6.50;99.30
4699;DHT22;33708;49.466;11.176;2022-11-02T18:24:24;6.60;98.90
4699;DHT22;33708;49.466;11.176;2022-11-02T18:26:50;6.50;97.90
4699;DHT22;33708;49.466;11.176;2022-11-02T18:29:16;6.40;97.80
4699;DHT22;33708;49.466;11.176;2022-11-02T18:31:42;6.40;98.50
4699;DHT22;33708;49.466;11.176;2022-11-02T18:34:10;6.40;98.80
4699;DHT22;33708;49.466;11.176;2022-11-02T18:36:37;6.40;99.20
4699;DHT22;33708;49.466;11.176;2022-11-02T18:39:04;6.30;98.80
4699;DHT22;33708;49.466;11.176;2022-11-02T18:41:29;6.30;99.30
4699;DHT22;33708;49.466;11.176;2022-11-02T18:44:00;6.30;99.90
4699;DHT22;33708;49.466;11.176;2022-11-02T18:46:27;6.30;99.90